Time;durP1;ratioP1;P1;durP2;ratioP2;P2;SDS_P1;SDS_P2;PMS_P1;PMS_P2;Temp;Humidity;BMP_temperature;BMP_pressure;BME280_temperature;BME280_humidity;BME280_pressure;Samples;Min_cycle;Max_cycle;Signal;HPM_P1;HPM_P2
2022/08/03 00:01:16;;;;;;;4.85;3.35;;;20.50;96.50;;;;;;5133516;27;20023;-78
2022/08/03 00:03:41;;;;;;;4.05;3.25;;;20.50;96.50;;;;;;5125764;27;20062;-79
2022/08/03 00:06:07;;;;;;;4.00;2.97;;;20.50;96.60;;;;;;5132737;27;20066;-81
2022/08/03 00:08:33;;;;;;;5.20;3.17;;;20.50;96.70;;;;;;5134659;27;20055;-79
2022/08/03 00:10:58;;;;;;;4.40;2.85;;;20.40;96.80;;;;;;5132357;27;20501;-81
2022/08/03 00:13:24;;;;;;;5.07;3.47;;;20.40;96.90;;;;;;5135420;27;20568;-79
2022/08/03 00:15:50;;;;;;;3.60;2.95;;;20.40;96.90;;;;;;5143931;27;20038;-79
2022/08/03 00:18:15;;;;;;;4.80;3.10;;;20.40;97.00;;;;;;5146637;27;20031;-80
2022/08/03 00:20:41;;;;;;;4.63;3.53;;;20.40;97.00;;;;;;5145344;27;20057;-80
2022/08/03 00:23:07;;;;;;;6.25;3.75;;;20.30;97.10;;;;;;5141100;27;20035;-79
2022/08/03 00:25:35;;;;;;;6.60;3.97;;;20.30;97.10;;;;;;5126879;27;20477;-79
2022/08/03 00:28:02;;;;;;;4.20;3.63;;;20.30;97.10;;;;;;5125972;27;20028;-79
2022/08/03 00:30:28;;;;;;;5.80;3.42;;;20.30;97.20;;;;;;5131376;27;20118;-79
2022/08/03 00:32:53;;;;;;;6.68;3.72;;;20.30;97.20;;;;;;5130348;27;20121;-78
2022/08/03 00:35:19;;;;;;;7.53;4.28;;;20.30;97.30;;;;;;5133191;27;20039;-80
2022/08/03 00:37:44;;;;;;;3.83;2.75;;;20.30;97.40;;;;;;5129537;27;20602;-79
2022/08/03 00:40:14;;;;;;;8.50;3.63;;;20.30;97.40;;;;;;5124967;27;20118;-80
2022/08/03 00:42:57;;;;;;;4.28;3.67;;;20.30;97.40;;;;;;5118958;27;20489;-80
2022/08/03 00:45:26;;;;;;;5.07;3.88;;;20.30;97.50;;;;;;5132711;27;20031;-80
2022/08/03 00:47:52;;;;;;;5.82;3.67;;;20.20;97.60;;;;;;5132788;27;20014;-80
2022/08/03 00:50:19;;;;;;;3.38;3.08;;;20.20;97.70;;;;;;5131715;27;20422;-79
2022/08/03 00:52:46;;;;;;;5.70;3.88;;;20.20;97.70;;;;;;5131483;27;20039;-79
2022/08/03 00:55:12;;;;;;;6.88;3.60;;;20.20;97.70;;;;;;5127987;27;20534;-79
2022/08/03 00:57:37;;;;;;;3.88;3.15;;;20.10;97.70;;;;;;5130506;27;20027;-79
2022/08/03 01:00:06;;;;;;;4.05;3.28;;;20.10;97.80;;;;;;5131408;27;20026;-80
2022/08/03 01:02:32;;;;;;;6.22;3.60;;;20.10;97.90;;;;;;5125838;27;20123;-79
2022/08/03 01:04:57;;;;;;;4.18;3.30;;;20.10;97.90;;;;;;5133017;27;20435;-81
2022/08/03 01:07:31;;;;;;;7.50;3.90;;;20.10;98.00;;;;;;5131254;27;20070;-79
2022/08/03 01:10:16;;;;;;;4.93;3.35;;;20.00;98.00;;;;;;5130706;27;20031;-79
2022/08/03 01:12:56;;;;;;;5.13;3.60;;;20.00;98.00;;;;;;5122994;27;20693;-79
2022/08/03 01:15:42;;;;;;;4.03;2.80;;;20.00;98.10;;;;;;5118037;27;20031;-80
2022/08/03 01:18:15;;;;;;;4.47;3.70;;;20.00;98.20;;;;;;5125588;27;20023;-80
2022/08/03 01:20:45;;;;;;;5.05;3.47;;;19.90;98.20;;;;;;5125755;27;20031;-80
2022/08/03 01:23:36;;;;;;;6.63;3.78;;;19.90;98.20;;;;;;5128174;27;20038;-80
2022/08/03 01:26:12;;;;;;;5.40;4.15;;;19.90;98.20;;;;;;5131458;27;20084;-79
2022/08/03 01:28:47;;;;;;;4.10;3.47;;;19.90;98.40;;;;;;5131250;27;20027;-78
2022/08/03 01:31:17;;;;;;;4.38;3.50;;;19.90;98.40;;;;;;5127187;27;20031;-79
2022/08/03 01:33:56;;;;;;;5.22;3.85;;;19.90;98.40;;;;;;5127468;27;20511;-80
2022/08/03 01:36:25;;;;;;;5.38;3.58;;;19.80;98.50;;;;;;5126693;27;20039;-79
2022/08/03 01:38:57;;;;;;;9.07;4.68;;;19.80;98.60;;;;;;5123381;27;20388;-79
2022/08/03 01:41:32;;;;;;;9.30;4.00;;;19.80;98.70;;;;;;5131593;27;20019;-79
2022/08/03 01:44:01;;;;;;;5.18;4.03;;;19.80;98.90;;;;;;5130373;27;20109;-79
2022/08/03 01:46:28;;;;;;;7.25;4.13;;;19.70;98.70;;;;;;5130900;27;20039;-80
2022/08/03 01:48:54;;;;;;;6.60;4.28;;;19.70;98.70;;;;;;5130778;27;20030;-80
2022/08/03 01:51:21;;;;;;;4.18;3.53;;;19.70;98.80;;;;;;5129576;27;20524;-78
2022/08/03 01:53:50;;;;;;;5.60;3.70;;;19.70;98.80;;;;;;5130585;27;20103;-80
2022/08/03 01:56:16;;;;;;;5.45;3.60;;;19.70;98.90;;;;;;5128396;27;20432;-80
2022/08/03 01:58:43;;;;;;;8.18;3.95;;;19.70;98.90;;;;;;5130879;27;20072;-80
2022/08/03 02:01:10;;;;;;;7.03;3.67;;;19.70;98.90;;;;;;5129552;27;20027;-80
2022/08/03 02:03:38;;;;;;;6.32;3.97;;;19.60;99.00;;;;;;5124230;27;20031;-80
2022/08/03 02:06:05;;;;;;;4.15;3.63;;;19.60;99.00;;;;;;5125309;27;20031;-80
2022/08/03 02:08:32;;;;;;;4.88;3.53;;;19.60;99.10;;;;;;5128305;27;20525;-80
2022/08/03 02:10:58;;;;;;;9.55;3.95;;;19.60;99.10;;;;;;5129482;27;20019;-80
2022/08/03 02:13:25;;;;;;;4.03;3.50;;;19.50;99.10;;;;;;5129920;27;20039;-80
2022/08/03 02:15:52;;;;;;;4.63;3.58;;;19.50;99.20;;;;;;5129742;27;20076;-79
2022/08/03 02:18:19;;;;;;;5.38;3.70;;;19.50;99.20;;;;;;5128481;27;20406;-80
2022/08/03 02:20:46;;;;;;;6.55;4.10;;;19.50;99.20;;;;;;5118242;27;20032;-80
2022/08/03 02:23:14;;;;;;;4.70;3.95;;;19.40;99.30;;;;;;5126705;27;20062;-80
2022/08/03 02:25:47;;;;;;;5.43;4.05;;;19.40;99.30;;;;;;5129712;27;20079;-79
2022/08/03 02:28:18;;;;;;;4.57;3.60;;;19.40;99.30;;;;;;5129309;27;20027;-79
2022/08/03 02:30:49;;;;;;;7.97;3.78;;;19.40;99.40;;;;;;5125727;28;20592;-80
2022/08/03 02:33:20;;;;;;;7.32;4.72;;;19.40;99.40;;;;;;5128688;27;20045;-79
2022/08/03 02:35:48;;;;;;;5.68;3.42;;;19.40;99.50;;;;;;5130028;27;20043;-79
2022/08/03 02:38:15;;;;;;;6.60;4.20;;;19.30;99.50;;;;;;5130222;27;20023;-80
2022/08/03 02:40:43;;;;;;;5.82;4.25;;;19.30;99.50;;;;;;5129052;28;20031;-78
2022/08/03 02:43:15;;;;;;;5.10;4.03;;;19.30;99.50;;;;;;5128322;28;20397;-79
2022/08/03 02:45:43;;;;;;;7.95;4.65;;;19.30;99.60;;;;;;5129978;27;20196;-81
2022/08/03 02:48:10;;;;;;;4.78;3.67;;;19.30;99.60;;;;;;5123967;28;20115;-79
2022/08/03 02:50:36;;;;;;;9.40;4.32;;;19.30;99.70;;;;;;5127239;27;20518;-79
2022/08/03 02:53:03;;;;;;;6.50;4.78;;;19.30;99.70;;;;;;5127383;28;20030;-80
2022/08/03 02:55:30;;;;;;;4.85;3.55;;;19.20;99.70;;;;;;5128481;28;20072;-79
2022/08/03 02:57:57;;;;;;;6.38;4.13;;;19.20;99.80;;;;;;5131028;27;20124;-80
2022/08/03 03:00:23;;;;;;;7.85;4.35;;;19.20;99.90;;;;;;5129050;27;20092;-80
2022/08/03 03:02:49;;;;;;;6.13;4.35;;;19.20;99.90;;;;;;5131569;27;20042;-80
2022/08/03 03:05:15;;;;;;;7.25;4.35;;;19.20;99.90;;;;;;5133190;27;20115;-80
2022/08/03 03:07:42;;;;;;;7.15;4.80;;;19.20;99.90;;;;;;5133594;27;20072;-79
2022/08/03 03:10:08;;;;;;;7.22;4.53;;;19.20;99.90;;;;;;5134900;27;20027;-79
2022/08/03 03:12:37;;;;;;;9.98;5.15;;;19.20;99.90;;;;;;5132702;27;20050;-79
2022/08/03 03:15:05;;;;;;;5.47;3.60;;;19.20;99.90;;;;;;5130048;27;20081;-80
2022/08/03 03:17:32;;;;;;;7.85;4.40;;;19.20;99.90;;;;;;5132237;27;20034;-78
2022/08/03 03:19:59;;;;;;;5.68;4.07;;;19.10;99.90;;;;;;5132240;27;20092;-79
2022/08/03 03:22:26;;;;;;;6.68;4.22;;;19.10;99.90;;;;;;5132917;27;20039;-79
2022/08/03 03:24:53;;;;;;;5.28;3.80;;;19.10;99.90;;;;;;5147334;27;20031;-79
2022/08/03 03:27:19;;;;;;;7.20;3.88;;;19.10;99.90;;;;;;5126783;27;20020;-79
2022/08/03 03:29:45;;;;;;;8.23;5.00;;;19.10;99.90;;;;;;5133903;27;20105;-79
2022/08/03 03:32:10;;;;;;;5.93;4.07;;;19.10;99.90;;;;;;5118472;27;20035;-79
2022/08/03 03:34:36;;;;;;;5.97;3.95;;;19.10;99.90;;;;;;5123176;27;20035;-80
2022/08/03 03:37:02;;;;;;;6.38;3.78;;;19.10;99.90;;;;;;5147543;27;20111;-78
2022/08/03 03:39:28;;;;;;;6.22;4.72;;;19.00;99.90;;;;;;5134901;27;20072;-79
2022/08/03 03:41:53;;;;;;;6.00;4.05;;;19.00;99.90;;;;;;5133351;27;20440;-79
2022/08/03 03:44:19;;;;;;;6.10;4.00;;;19.00;99.90;;;;;;5126013;27;20058;-78
2022/08/03 03:46:44;;;;;;;6.53;4.32;;;19.00;99.90;;;;;;5132174;27;20092;-78
2022/08/03 03:49:10;;;;;;;5.00;4.07;;;19.00;99.90;;;;;;5131555;27;20031;-79
2022/08/03 03:51:35;;;;;;;6.85;4.30;;;19.00;99.90;;;;;;5132740;27;20038;-79
2022/08/03 03:54:04;;;;;;;6.72;4.63;;;19.00;99.90;;;;;;5132752;27;20055;-79
2022/08/03 03:56:30;;;;;;;4.53;3.90;;;18.90;99.90;;;;;;5124763;27;20499;-79
2022/08/03 03:58:55;;;;;;;6.65;3.88;;;19.00;99.90;;;;;;5120660;27;20027;-78
2022/08/03 04:01:21;;;;;;;5.82;4.22;;;19.00;99.90;;;;;;5131112;27;20023;-79
2022/08/03 04:03:47;;;;;;;4.90;3.65;;;19.00;99.90;;;;;;5133795;27;20080;-79
2022/08/03 04:11:49;;;;;;;7.50;4.70;;;18.90;99.90;;;;;;5131065;27;20451;-79
2022/08/03 04:14:34;;;;;;;4.82;4.00;;;19.00;99.90;;;;;;5130924;27;20043;-80
2022/08/03 04:17:06;;;;;;;6.65;4.57;;;19.00;99.90;;;;;;5131805;27;20115;-80
2022/08/03 04:19:36;;;;;;;7.40;4.65;;;19.00;99.90;;;;;;5128624;27;20023;-80
2022/08/03 04:22:09;;;;;;;4.95;3.90;;;19.00;99.90;;;;;;5123304;27;20026;-80
2022/08/03 04:24:41;;;;;;;5.57;3.75;;;19.00;99.90;;;;;;5133104;27;20118;-80
2022/08/03 04:27:10;;;;;;;;;;;19.00;99.90;;;;;;5131869;27;20031;-80
2022/08/03 04:29:40;;;;;;;5.82;3.88;;;19.00;99.90;;;;;;5122284;27;19915;-80
2022/08/03 04:32:06;;;;;;;6.57;4.05;;;19.00;99.90;;;;;;5132496;27;20114;-80
2022/08/03 04:34:32;;;;;;;6.72;4.53;;;19.00;99.90;;;;;;5126192;27;20035;-80
2022/08/03 04:37:01;;;;;;;7.82;4.47;;;19.10;99.90;;;;;;5132124;27;20533;-81
2022/08/03 04:39:30;;;;;;;5.63;4.03;;;19.10;99.90;;;;;;5130229;27;20175;-80
2022/08/03 04:42:00;;;;;;;5.53;4.18;;;19.10;99.90;;;;;;5131523;27;20034;-80
2022/08/03 04:44:27;;;;;;;6.57;4.47;;;19.20;99.90;;;;;;5130061;27;20034;-80
2022/08/03 04:46:53;;;;;;;5.72;4.28;;;19.20;99.90;;;;;;5131906;27;20023;-80
2022/08/03 04:49:20;;;;;;;7.35;3.65;;;19.20;99.90;;;;;;5132642;27;20457;-80
2022/08/03 04:51:47;;;;;;;8.60;4.30;;;19.30;99.90;;;;;;5131512;27;20034;-80
2022/08/03 04:54:14;;;;;;;6.43;3.53;;;19.30;99.90;;;;;;5126315;27;20516;-80
2022/08/03 04:56:41;;;;;;;5.50;4.00;;;19.40;99.90;;;;;;5112132;27;20495;-80
2022/08/03 04:59:07;;;;;;;6.75;3.90;;;19.40;99.90;;;;;;5124229;27;20119;-80
2022/08/03 05:01:33;;;;;;;5.63;3.80;;;19.40;99.90;;;;;;5121100;27;20031;-80
2022/08/03 05:03:59;;;;;;;4.63;3.35;;;19.40;99.90;;;;;;5122225;27;20035;-80
2022/08/03 05:06:24;;;;;;;7.30;3.53;;;19.50;99.90;;;;;;5124259;27;20123;-80
2022/08/03 05:08:50;;;;;;;7.60;4.40;;;19.50;99.90;;;;;;5122473;27;20492;-78
2022/08/03 05:11:16;;;;;;;5.90;3.65;;;19.60;99.90;;;;;;5121223;27;20035;-81
2022/08/03 05:13:42;;;;;;;5.10;3.58;;;19.60;99.90;;;;;;5120357;27;20111;-79
2022/08/03 05:16:08;;;;;;;7.07;4.00;;;19.70;99.90;;;;;;5126466;27;20054;-79
2022/08/03 05:18:34;;;;;;;8.90;3.88;;;19.70;99.90;;;;;;5128204;27;20043;-80
2022/08/03 05:21:00;;;;;;;7.45;3.83;;;19.80;99.80;;;;;;5121479;27;20216;-80
2022/08/03 05:23:26;;;;;;;8.88;4.05;;;19.90;99.50;;;;;;5113470;27;20110;-79
2022/08/03 05:25:51;;;;;;;5.65;2.80;;;19.90;99.30;;;;;;5124834;27;20031;-80
2022/08/03 05:28:17;;;;;;;4.00;2.78;;;20.00;98.70;;;;;;5125692;27;20034;-78
2022/08/03 05:30:42;;;;;;;6.35;2.97;;;20.10;98.60;;;;;;5119295;27;20035;-79
2022/08/03 05:33:08;;;;;;;6.18;3.47;;;20.20;98.50;;;;;;5122896;27;20024;-79
2022/08/03 05:35:34;;;;;;;6.50;3.10;;;20.30;98.30;;;;;;5121852;27;20042;-80
2022/08/03 05:38:01;;;;;;;6.32;2.88;;;20.40;98.00;;;;;;5118211;27;20024;-80
2022/08/03 05:40:27;;;;;;;6.90;3.08;;;20.50;97.80;;;;;;5118015;27;20180;-79
2022/08/03 05:42:52;;;;;;;4.57;2.17;;;20.60;97.30;;;;;;5126364;27;20118;-85
2022/08/03 05:45:18;;;;;;;8.15;2.60;;;20.60;97.20;;;;;;5129668;27;20062;-81
2022/08/03 05:47:44;;;;;;;12.10;2.30;;;20.70;96.00;;;;;;5110540;27;20404;-82
2022/08/03 05:50:11;;;;;;;4.15;2.15;;;20.80;95.60;;;;;;5143349;27;20027;-80
2022/08/03 05:52:37;;;;;;;4.78;2.42;;;20.90;95.50;;;;;;5122275;27;20015;-81
2022/08/03 05:55:05;;;;;;;6.40;2.20;;;21.00;94.80;;;;;;5129110;27;20063;-80
2022/08/03 05:57:30;;;;;;;6.18;2.20;;;21.10;94.70;;;;;;5129081;27;20058;-81
2022/08/03 05:59:56;;;;;;;6.60;2.85;;;21.30;94.40;;;;;;5128351;27;20504;-80
2022/08/03 06:02:21;;;;;;;4.10;1.77;;;21.40;94.20;;;;;;5126130;27;20035;-78
2022/08/03 06:04:47;;;;;;;6.93;2.25;;;21.50;93.30;;;;;;5124381;27;20041;-78
2022/08/03 06:07:12;;;;;;;10.20;1.83;;;21.60;93.10;;;;;;5126430;27;20027;-80
2022/08/03 06:09:40;;;;;;;6.25;2.13;;;21.70;93.00;;;;;;5128279;27;20029;-80
2022/08/03 06:12:06;;;;;;;4.55;1.70;;;21.90;93.10;;;;;;5127055;27;20385;-79
2022/08/03 06:14:31;;;;;;;9.07;1.63;;;22.00;92.60;;;;;;5121441;27;20074;-79
2022/08/03 06:16:56;;;;;;;3.60;1.80;;;22.10;92.80;;;;;;5118044;27;20035;-81
2022/08/03 06:19:23;;;;;;;8.50;2.17;;;22.20;92.50;;;;;;5119180;27;20096;-80
2022/08/03 06:21:48;;;;;;;6.00;1.98;;;22.30;92.30;;;;;;5124642;27;20031;-81
2022/08/03 06:24:15;;;;;;;6.80;1.65;;;22.30;92.00;;;;;;5126509;27;20092;-80
2022/08/03 06:26:40;;;;;;;5.38;1.50;;;22.40;91.60;;;;;;5121576;27;20019;-80
2022/08/03 06:29:06;;;;;;;7.07;1.50;;;22.50;90.90;;;;;;5122988;27;20020;-80
2022/08/03 06:31:31;;;;;;;5.82;1.20;;;22.60;90.80;;;;;;5126636;27;20493;-80
2022/08/03 06:33:57;;;;;;;2.13;1.52;;;22.70;90.40;;;;;;5122597;27;20032;-80
2022/08/03 06:36:24;;;;;;;3.67;1.45;;;22.80;90.30;;;;;;5114515;28;20407;-80
2022/08/03 06:38:50;;;;;;;2.13;1.10;;;22.90;90.40;;;;;;5127125;28;20027;-80
2022/08/03 06:41:15;;;;;;;3.70;1.17;;;23.00;90.10;;;;;;5125381;28;20100;-80
2022/08/03 06:43:41;;;;;;;4.50;1.38;;;23.10;89.60;;;;;;5123884;28;20038;-79
2022/08/03 06:46:06;;;;;;;3.53;1.50;;;23.20;89.80;;;;;;5125821;28;20042;-79
2022/08/03 06:48:32;;;;;;;5.38;1.42;;;23.30;90.20;;;;;;5128847;28;20448;-80
2022/08/03 06:50:58;;;;;;;4.85;1.20;;;23.40;89.60;;;;;;5128222;28;20035;-80
2022/08/03 06:53:23;;;;;;;6.20;1.70;;;23.40;88.70;;;;;;5133717;27;20092;-81
2022/08/03 06:55:50;;;;;;;4.43;1.33;;;23.50;88.60;;;;;;5131230;28;20038;-80
2022/08/03 06:58:15;;;;;;;4.95;1.60;;;23.60;88.60;;;;;;5124048;28;20031;-79
2022/08/03 07:00:41;;;;;;;5.70;1.27;;;23.70;87.60;;;;;;5125611;28;20054;-81
2022/08/03 07:03:06;;;;;;;1.52;1.30;;;23.80;87.60;;;;;;5126070;28;20503;-80
2022/08/03 07:05:33;;;;;;;8.60;1.38;;;23.90;86.50;;;;;;5127059;28;20035;-80
2022/08/03 07:08:00;;;;;;;2.72;1.08;;;24.00;86.40;;;;;;5122741;28;20027;-79
2022/08/03 07:10:27;;;;;;;5.68;1.30;;;24.10;86.30;;;;;;5124155;28;20034;-81
2022/08/03 07:12:52;;;;;;;5.28;1.40;;;24.20;86.20;;;;;;5123857;28;20035;-81
2022/08/03 07:15:18;;;;;;;5.22;1.70;;;24.30;85.90;;;;;;5127141;27;20032;-82
2022/08/03 07:17:44;;;;;;;4.85;2.05;;;24.40;86.10;;;;;;5124529;27;20023;-82
2022/08/03 07:20:10;;;;;;;4.63;1.15;;;24.50;85.60;;;;;;5126466;28;20038;-80
2022/08/03 07:22:35;;;;;;;2.65;1.10;;;24.70;84.90;;;;;;5124645;28;20064;-82
2022/08/03 07:25:01;;;;;;;1.85;1.40;;;24.80;85.80;;;;;;5127097;27;20108;-83
2022/08/03 07:27:28;;;;;;;2.20;1.23;;;24.90;85.80;;;;;;5126397;28;20392;-83
2022/08/03 07:29:54;;;;;;;6.22;1.10;;;25.00;85.00;;;;;;5120238;27;20019;-81
2022/08/03 07:32:19;;;;;;;4.72;1.60;;;25.20;84.80;;;;;;5126490;27;20511;-84
2022/08/03 07:34:45;;;;;;;8.00;1.75;;;25.40;85.90;;;;;;5120723;28;20050;-83
2022/08/03 07:37:10;;;;;;;2.53;1.25;;;25.50;83.50;;;;;;5124911;27;20088;-83
2022/08/03 07:39:36;;;;;;;6.85;1.42;;;25.70;83.10;;;;;;5128157;28;20076;-83
2022/08/03 07:42:01;;;;;;;1.40;0.80;;;25.90;83.10;;;;;;5127336;28;20027;-80
2022/08/03 07:44:27;;;;;;;3.70;1.45;;;26.00;82.10;;;;;;5126176;28;20096;-81
2022/08/03 07:46:52;;;;;;;5.10;1.23;;;26.20;82.50;;;;;;5125787;27;20070;-82
2022/08/03 07:49:18;;;;;;;2.75;1.40;;;26.40;81.80;;;;;;5128456;27;20476;-82
2022/08/03 07:51:43;;;;;;;3.05;1.10;;;26.50;81.80;;;;;;5130410;27;20031;-82
2022/08/03 07:54:09;;;;;;;5.53;1.20;;;26.70;81.70;;;;;;5129862;27;20031;-82
2022/08/03 07:56:35;;;;;;;3.72;1.40;;;26.90;81.00;;;;;;5128163;27;20718;-81
2022/08/03 07:59:01;;;;;;;5.47;1.13;;;27.10;80.80;;;;;;5125761;27;20687;-82
2022/08/03 08:01:27;;;;;;;2.47;1.10;;;27.30;81.40;;;;;;5125556;27;20103;-81
2022/08/03 08:03:53;;;;;;;2.75;1.25;;;27.50;80.50;;;;;;5126829;27;20038;-82
2022/08/03 08:06:19;;;;;;;4.10;1.08;;;27.60;79.10;;;;;;5125987;27;20039;-82
2022/08/03 08:08:45;;;;;;;1.80;1.02;;;27.70;77.00;;;;;;5128144;27;20029;-82
2022/08/03 08:11:10;;;;;;;2.17;0.80;;;27.90;76.70;;;;;;5129365;27;20031;-83
2022/08/03 08:13:39;;;;;;;1.50;1.10;;;28.00;76.30;;;;;;5128073;27;20027;-82
2022/08/03 08:16:05;;;;;;;1.95;1.02;;;28.20;76.00;;;;;;5126268;27;20054;-82
2022/08/03 08:18:31;;;;;;;2.78;1.15;;;28.30;73.80;;;;;;5131855;27;20023;-82
2022/08/03 08:20:56;;;;;;;3.92;0.95;;;28.40;74.40;;;;;;5131331;27;20397;-83
2022/08/03 08:23:22;;;;;;;1.80;0.75;;;28.50;74.70;;;;;;5123615;27;20050;-81
2022/08/03 08:25:49;;;;;;;4.20;0.80;;;28.70;72.30;;;;;;5126256;27;20027;-84
2022/08/03 08:28:17;;;;;;;2.97;1.00;;;28.80;71.80;;;;;;5125324;27;20083;-82
2022/08/03 08:30:42;;;;;;;3.15;0.85;;;28.90;69.50;;;;;;5129165;27;20050;-82
2022/08/03 08:33:08;;;;;;;4.63;0.80;;;29.10;69.90;;;;;;5131266;27;20062;-83
2022/08/03 08:35:33;;;;;;;3.83;0.88;;;29.10;71.20;;;;;;5130448;27;20031;-83
2022/08/03 08:37:59;;;;;;;1.98;0.98;;;29.30;70.30;;;;;;5127048;27;20484;-81
2022/08/03 08:40:26;;;;;;;3.13;1.25;;;29.40;70.40;;;;;;5126604;27;20040;-83
2022/08/03 08:42:52;;;;;;;4.22;0.82;;;29.60;69.60;;;;;;5125796;27;20023;-82
2022/08/03 08:45:18;;;;;;;1.13;0.70;;;29.70;68.30;;;;;;5118067;27;20054;-83
2022/08/03 08:47:46;;;;;;;2.08;0.70;;;29.90;70.00;;;;;;5127267;27;20023;-81
2022/08/03 08:50:12;;;;;;;1.90;0.82;;;30.00;68.50;;;;;;5123298;27;20019;-83
2022/08/03 08:52:41;;;;;;;1.13;0.68;;;30.20;64.80;;;;;;5131015;27;20114;-81
2022/08/03 08:55:09;;;;;;;3.47;1.17;;;30.30;64.10;;;;;;5130996;27;20034;-83
2022/08/03 08:57:44;;;;;;;1.30;0.93;;;30.40;64.70;;;;;;5127099;27;20031;-81
2022/08/03 09:00:14;;;;;;;1.38;0.80;;;30.50;65.40;;;;;;5125623;27;20468;-83
2022/08/03 09:02:43;;;;;;;2.05;0.80;;;30.50;63.90;;;;;;5129508;27;20049;-81
2022/08/03 09:05:17;;;;;;;1.00;0.60;;;30.60;63.70;;;;;;5122150;27;20034;-81
2022/08/03 09:07:44;;;;;;;3.80;0.82;;;30.80;66.60;;;;;;5129967;27;20058;-83
2022/08/03 09:10:12;;;;;;;1.17;0.80;;;30.90;63.90;;;;;;5128612;27;20338;-81
2022/08/03 09:12:42;;;;;;;1.58;0.75;;;30.90;61.40;;;;;;5123421;27;20016;-81
2022/08/03 09:15:26;;;;;;;5.45;0.93;;;31.00;62.00;;;;;;5130123;27;20042;-82
2022/08/03 09:17:54;;;;;;;1.45;0.80;;;31.10;63.80;;;;;;5125973;27;20037;-82
2022/08/03 09:20:21;;;;;;;1.50;0.88;;;31.20;64.10;;;;;;5126134;27;20032;-81
2022/08/03 09:22:53;;;;;;;1.85;1.00;;;31.40;60.90;;;;;;5122435;27;20038;-82
2022/08/03 09:25:25;;;;;;;0.63;0.60;;;31.50;60.20;;;;;;5129059;27;20031;-82
2022/08/03 09:27:50;;;;;;;1.10;0.60;;;31.70;59.60;;;;;;5129060;27;20038;-82
2022/08/03 09:30:17;;;;;;;0.90;0.60;;;31.70;59.20;;;;;;5125023;27;20053;-81
2022/08/03 09:32:44;;;;;;;1.52;0.82;;;31.80;58.50;;;;;;5121820;27;20045;-82
2022/08/03 09:35:11;;;;;;;5.00;0.95;;;31.90;59.50;;;;;;5126936;27;20042;-81
2022/08/03 09:37:36;;;;;;;2.13;0.80;;;31.90;57.60;;;;;;5121080;27;20023;-81
2022/08/03 09:40:04;;;;;;;3.65;0.70;;;31.90;58.10;;;;;;5130502;27;20045;-81
2022/08/03 09:42:29;;;;;;;4.57;0.82;;;32.00;57.50;;;;;;5128667;27;20042;-81
2022/08/03 09:44:56;;;;;;;0.82;0.70;;;32.00;57.50;;;;;;5129098;27;20023;-81
2022/08/03 09:47:30;;;;;;;1.42;0.82;;;32.00;55.60;;;;;;5128780;27;20409;-83
2022/08/03 09:50:01;;;;;;;1.77;0.70;;;32.10;57.30;;;;;;5127333;27;20023;-82
2022/08/03 09:52:35;;;;;;;1.20;0.77;;;32.20;56.90;;;;;;5117746;27;20039;-81
2022/08/03 09:55:07;;;;;;;1.42;0.85;;;32.40;56.00;;;;;;5122774;27;20533;-82
2022/08/03 09:57:32;;;;;;;1.10;0.80;;;32.50;55.40;;;;;;5121038;27;20539;-83
2022/08/03 10:00:11;;;;;;;2.50;0.60;;;32.70;55.20;;;;;;5120823;27;20032;-82
2022/08/03 10:02:38;;;;;;;1.58;0.68;;;32.80;55.00;;;;;;5127022;27;20025;-82
2022/08/03 10:05:05;;;;;;;0.98;0.68;;;32.90;54.30;;;;;;5125805;27;20027;-82
2022/08/03 10:07:42;;;;;;;2.15;0.60;;;32.90;53.40;;;;;;5135553;27;20031;-82
2022/08/03 10:10:09;;;;;;;1.73;0.60;;;33.10;53.70;;;;;;5130630;27;20110;-82
2022/08/03 10:12:35;;;;;;;1.67;0.80;;;33.10;53.40;;;;;;5128092;27;20092;-82
2022/08/03 10:15:01;;;;;;;2.15;0.90;;;33.10;53.70;;;;;;5127234;27;20062;-82
2022/08/03 10:17:27;;;;;;;1.70;0.70;;;33.20;53.70;;;;;;5127182;27;20102;-82
2022/08/03 10:19:53;;;;;;;1.65;0.77;;;33.30;55.20;;;;;;5120517;27;20473;-82
2022/08/03 10:22:22;;;;;;;1.23;0.80;;;33.40;52.30;;;;;;5126617;27;20072;-82
2022/08/03 10:25:10;;;;;;;1.25;0.80;;;33.30;52.10;;;;;;5128623;27;20023;-83
2022/08/03 10:27:40;;;;;;;1.05;0.70;;;33.30;53.60;;;;;;5127114;27;20050;-84
2022/08/03 10:30:10;;;;;;;0.93;0.73;;;33.30;51.90;;;;;;5127570;27;20035;-81
2022/08/03 10:32:47;;;;;;;1.67;0.65;;;33.40;54.30;;;;;;5124155;27;20037;-81
2022/08/03 10:35:15;;;;;;;1.52;0.60;;;33.40;53.70;;;;;;5115990;27;20023;-82
2022/08/03 10:37:56;;;;;;;1.10;0.70;;;33.60;54.50;;;;;;5128555;28;20035;-81
2022/08/03 10:40:23;;;;;;;2.13;0.80;;;33.70;52.50;;;;;;5127869;27;20114;-81
2022/08/03 10:42:54;;;;;;;1.48;0.80;;;33.90;52.30;;;;;;5124772;28;20435;-82
2022/08/03 10:45:24;;;;;;;0.70;0.50;;;33.90;51.50;;;;;;5124388;27;20035;-82
2022/08/03 10:47:50;;;;;;;4.25;0.88;;;34.00;52.50;;;;;;5117300;27;20400;-82
2022/08/03 10:50:17;;;;;;;1.95;0.80;;;34.00;52.40;;;;;;5127977;28;20031;-82
2022/08/03 10:52:56;;;;;;;0.80;0.70;;;34.10;53.30;;;;;;5128193;27;20031;-82
2022/08/03 10:58:39;;;;;;;0.88;0.70;;;34.40;51.00;;;;;;5118421;28;20088;-82
2022/08/03 11:01:07;;;;;;;1.80;0.52;;;34.40;52.70;;;;;;5128789;27;20031;-83
2022/08/03 11:03:53;;;;;;;0.82;0.70;;;34.60;52.20;;;;;;5128990;27;20039;-82
2022/08/03 11:06:23;;;;;;;0.98;0.52;;;34.70;51.20;;;;;;5124977;28;20413;-82
2022/08/03 11:09:09;;;;;;;4.03;0.88;;;34.80;49.60;;;;;;5121161;28;20084;-83
2022/08/03 11:11:36;;;;;;;1.17;0.73;;;34.90;50.20;;;;;;5121216;28;20196;-82
2022/08/03 11:14:07;;;;;;;7.88;1.10;;;34.80;49.70;;;;;;5120390;28;20494;-82
2022/08/03 11:16:36;;;;;;;0.77;0.50;;;34.80;51.20;;;;;;5127980;27;20023;-82
2022/08/03 11:19:04;;;;;;;2.60;0.82;;;34.80;49.70;;;;;;5128633;28;20495;-83
2022/08/03 11:21:48;;;;;;;4.25;1.00;;;34.80;50.30;;;;;;5111935;27;20066;-83
2022/08/03 11:24:36;;;;;;;2.13;1.00;;;34.80;49.70;;;;;;5110673;28;20027;-83
2022/08/03 11:27:30;;;;;;;3.03;0.80;;;34.80;52.50;;;;;;5114010;27;20042;-85
2022/08/03 11:30:25;;;;;;;5.07;0.70;;;34.90;52.30;;;;;;5120718;27;20038;-83
2022/08/03 11:32:52;;;;;;;1.45;0.77;;;35.00;49.50;;;;;;5118591;27;20031;-85
2022/08/03 11:35:24;;;;;;;0.70;0.57;;;34.90;48.90;;;;;;5126930;27;20062;-82
2022/08/03 11:38:05;;;;;;;1.30;0.80;;;34.80;48.30;;;;;;5119905;27;20039;-83
2022/08/03 11:40:42;;;;;;;1.67;0.90;;;34.80;48.80;;;;;;5123625;27;20023;-83
2022/08/03 11:43:30;;;;;;;1.00;0.70;;;34.80;48.40;;;;;;5133171;27;20030;-83
2022/08/03 11:46:12;;;;;;;1.75;0.77;;;34.90;50.50;;;;;;5131982;27;20103;-84
2022/08/03 11:48:48;;;;;;;1.40;0.90;;;35.20;53.10;;;;;;5120292;27;20020;-83
2022/08/03 11:51:28;;;;;;;2.85;0.80;;;35.40;49.50;;;;;;5112147;28;20103;-82
2022/08/03 11:53:59;;;;;;;2.60;0.90;;;35.50;51.20;;;;;;5130348;27;20035;-83
2022/08/03 11:56:26;;;;;;;1.00;0.80;;;35.60;48.40;;;;;;5131369;27;20031;-83
2022/08/03 11:58:54;;;;;;;1.80;0.82;;;35.70;48.70;;;;;;5121369;27;20125;-83
2022/08/03 12:01:21;;;;;;;3.00;1.13;;;35.70;47.90;;;;;;5127480;27;20088;-82
2022/08/03 12:03:47;;;;;;;4.10;0.70;;;35.70;47.70;;;;;;5124735;27;20034;-84
2022/08/03 12:06:15;;;;;;;1.13;0.85;;;35.70;47.30;;;;;;5129317;27;20069;-83
2022/08/03 12:08:42;;;;;;;1.83;0.90;;;35.50;47.00;;;;;;5126490;27;20488;-83
2022/08/03 12:11:09;;;;;;;2.80;1.02;;;35.50;47.90;;;;;;5125984;27;20080;-82
2022/08/03 12:13:46;;;;;;;4.07;0.70;;;35.50;48.20;;;;;;5129758;27;20122;-83
2022/08/03 12:16:22;;;;;;;2.80;0.65;;;35.40;47.60;;;;;;5130853;27;20496;-84
2022/08/03 12:18:56;;;;;;;1.75;0.75;;;35.50;48.50;;;;;;5128233;27;20050;-82
2022/08/03 12:21:23;;;;;;;1.25;0.80;;;35.50;48.30;;;;;;5128609;27;20147;-83
2022/08/03 12:23:49;;;;;;;1.77;0.65;;;35.50;49.00;;;;;;5124391;27;20030;-83
2022/08/03 12:26:14;;;;;;;1.48;0.80;;;35.60;47.80;;;;;;5122101;27;20035;-84
2022/08/03 12:28:47;;;;;;;2.45;0.77;;;35.70;48.90;;;;;;5123713;27;20544;-84
2022/08/03 12:31:12;;;;;;;3.58;1.15;;;35.90;49.90;;;;;;5124986;27;20485;-85
2022/08/03 12:34:03;;;;;;;2.47;0.88;;;35.90;47.30;;;;;;5127963;27;20046;-85
2022/08/03 12:36:31;;;;;;;1.27;0.80;;;35.90;47.70;;;;;;5125263;27;20114;-82
2022/08/03 12:39:00;;;;;;;1.45;0.80;;;35.90;47.00;;;;;;5124370;27;20128;-82
2022/08/03 12:41:31;;;;;;;2.85;0.88;;;36.00;48.00;;;;;;5128541;27;20027;-85
2022/08/03 12:43:56;;;;;;;4.45;0.77;;;36.10;46.90;;;;;;5128875;27;20460;-83
2022/08/03 12:46:27;;;;;;;1.00;0.80;;;36.10;45.30;;;;;;5129530;27;20055;-85
2022/08/03 12:49:00;;;;;;;3.75;1.00;;;35.90;44.90;;;;;;5130296;27;20027;-83
2022/08/03 12:51:27;;;;;;;1.20;0.70;;;35.90;45.30;;;;;;5129493;27;20031;-82
2022/08/03 12:53:54;;;;;;;6.55;0.90;;;35.80;45.20;;;;;;5130129;27;20782;-83
2022/08/03 12:56:19;;;;;;;3.83;1.15;;;35.80;45.00;;;;;;5130971;27;20524;-82
2022/08/03 12:58:46;;;;;;;3.30;1.00;;;35.70;45.10;;;;;;5126423;27;20015;-85
2022/08/03 13:01:12;;;;;;;3.80;0.98;;;35.80;46.30;;;;;;5129135;27;20019;-85
2022/08/03 13:03:42;;;;;;;1.52;0.70;;;35.90;45.40;;;;;;5129204;27;20045;-85